createdAt,value
2024-05-09T00:00:30.398Z,99739.63
2024-05-09T00:03:02.465Z,99744.94
2024-05-09T00:05:29.229Z,99739.31
2024-05-09T00:07:55.913Z,99741.88
2024-05-09T00:10:29.153Z,99737.84
2024-05-09T00:13:02.231Z,99744.28
2024-05-09T00:15:28.833Z,99737.84
2024-05-09T00:17:55.637Z,99742.00
2024-05-09T00:20:28.398Z,99741.00
2024-05-09T00:23:01.969Z,99743.59
2024-05-09T00:25:28.610Z,99741.50
2024-05-09T00:27:55.219Z,99749.19
2024-05-09T00:30:31.039Z,99752.25
2024-05-09T00:33:01.542Z,99752.09
2024-05-09T00:35:28.316Z,99747.25
2024-05-09T00:37:55.036Z,99750.63
2024-05-09T00:40:30.849Z,99749.28
2024-05-09T00:43:04.889Z,99748.00
2024-05-09T00:45:31.452Z,99744.25
2024-05-09T00:47:58.175Z,99740.25
2024-05-09T00:50:30.014Z,99743.63
2024-05-09T00:53:02.617Z,99744.22
2024-05-09T00:55:29.260Z,99737.78
2024-05-09T00:57:55.834Z,99742.75
2024-05-09T01:00:30.714Z,99733.28
2024-05-09T01:03:02.682Z,99728.41
2024-05-09T01:05:29.508Z,99732.09
2024-05-09T01:07:56.215Z,99727.28
2024-05-09T01:10:28.187Z,99724.03
2024-05-09T01:13:00.457Z,99728.53
2024-05-09T01:15:27.109Z,99731.56
2024-05-09T01:17:53.878Z,99728.66
2024-05-09T01:20:31.551Z,99726.56
2024-05-09T01:23:06.360Z,99735.38
2024-05-09T01:25:32.982Z,99726.19
2024-05-09T01:27:59.565Z,99726.81
2024-05-09T01:32:54.425Z,99732.41
2024-05-09T01:35:21.314Z,99734.97
2024-05-09T01:37:48.004Z,99733.66
2024-05-09T01:40:18.644Z,99733.97
2024-05-09T01:42:51.401Z,99737.31
2024-05-09T01:45:17.947Z,99726.72
2024-05-09T01:47:44.886Z,99730.38
2024-05-09T01:50:11.626Z,99740.78
2024-05-09T01:52:42.801Z,99730.47
2024-05-09T01:55:09.403Z,99739.28
2024-05-09T01:57:35.950Z,99731.44
2024-05-09T02:00:03.857Z,99733.66
2024-05-09T02:02:36.995Z,99742.16
2024-05-09T02:05:03.772Z,99741.13
2024-05-09T02:07:30.495Z,99754.28
2024-05-09T02:09:57.084Z,99754.91
2024-05-09T02:12:23.756Z,99763.38
2024-05-09T02:14:50.443Z,99766.22
2024-05-09T02:17:17.099Z,99759.78
2024-05-09T02:19:43.781Z,99758.47
2024-05-09T02:22:10.417Z,99767.28
2024-05-09T02:24:36.965Z,99765.16
2024-05-09T02:27:03.580Z,99769.31
2024-05-09T02:29:30.235Z,99772.34
2024-05-09T02:31:56.964Z,99770.25
2024-05-09T02:34:23.684Z,99772.47
2024-05-09T02:36:50.268Z,99777.72
2024-05-09T02:39:16.813Z,99779.94
2024-05-09T02:41:43.399Z,99780.56
2024-05-09T02:44:10.039Z,99784.69
2024-05-09T02:46:36.871Z,99786.44
2024-05-09T02:49:03.577Z,99779.66
2024-05-09T02:51:30.151Z,99783.81
2024-05-09T02:53:56.740Z,99778.97
2024-05-09T02:56:23.383Z,99783.09
2024-05-09T02:58:50.052Z,99784.50
2024-05-09T03:01:16.721Z,99784.31
2024-05-09T03:03:43.455Z,99781.88
2024-05-09T03:06:10.171Z,99777.88
2024-05-09T03:08:36.834Z,99783.94
2024-05-09T03:11:03.499Z,99783.94
2024-05-09T03:13:30.112Z,99784.53
2024-05-09T03:15:56.686Z,99775.53
2024-05-09T03:18:23.401Z,99783.22
2024-05-09T03:20:50.190Z,99781.09
2024-05-09T03:23:16.842Z,99777.84
2024-05-09T03:25:43.491Z,99783.91
2024-05-09T03:28:10.148Z,99774.44
2024-05-09T03:30:41.729Z,99778.28
2024-05-09T03:33:09.988Z,99777.75
2024-05-09T03:35:36.778Z,99783.81
2024-05-09T03:38:03.434Z,99789.53
2024-05-09T03:40:31.117Z,99785.50
2024-05-09T03:42:57.988Z,99781.13
2024-05-09T03:45:24.534Z,99783.38
2024-05-09T03:47:52.076Z,99782.88
2024-05-09T03:50:26.073Z,99788.59
2024-05-09T03:53:00.016Z,99795.44
2024-05-09T03:55:26.761Z,99797.38
2024-05-09T03:57:53.342Z,99800.41
2024-05-09T04:00:30.050Z,99796.06
2024-05-09T04:03:02.048Z,99801.03
2024-05-09T04:05:28.881Z,99805.66
2024-05-09T04:07:55.555Z,99805.94
2024-05-09T04:10:30.233Z,99810.28
2024-05-09T04:12:59.749Z,99805.88
2024-05-09T04:15:26.354Z,99800.34
2024-05-09T04:17:54.315Z,99795.56
2024-05-09T04:20:29.584Z,99810.81
2024-05-09T04:23:03.898Z,99804.56
2024-05-09T04:25:30.578Z,99807.22
2024-05-09T04:27:57.204Z,99802.88
2024-05-09T04:30:34.294Z,99811.56
2024-05-09T04:33:05.484Z,99809.94
2024-05-09T04:35:32.482Z,99821.28
2024-05-09T04:37:59.201Z,99825.03
2024-05-09T04:40:33.012Z,99824.00
2024-05-09T04:43:02.433Z,99826.34
2024-05-09T04:45:29.120Z,99834.97
2024-05-09T04:47:55.980Z,99839.44
2024-05-09T04:50:30.154Z,99833.50
2024-05-09T04:53:03.156Z,99841.63
2024-05-09T04:55:29.856Z,99844.47
2024-05-09T04:57:56.469Z,99840.31
2024-05-09T05:00:32.306Z,99845.47
2024-05-09T05:03:03.329Z,99844.53
2024-05-09T05:05:30.152Z,99852.41
2024-05-09T05:07:56.785Z,99849.63
2024-05-09T05:10:32.951Z,99854.69
2024-05-09T05:13:02.175Z,99846.06
2024-05-09T05:15:28.775Z,99848.72
2024-05-09T05:17:55.555Z,99854.88
2024-05-09T05:20:30.612Z,99850.34
2024-05-09T05:22:59.935Z,99857.56
2024-05-09T05:25:26.540Z,99858.56
2024-05-09T05:27:53.135Z,99860.59
2024-05-09T05:30:25.082Z,99860.19
2024-05-09T05:32:55.753Z,99874.00
2024-05-09T05:35:22.599Z,99876.81
2024-05-09T05:37:49.250Z,99873.31
2024-05-09T05:40:25.282Z,99864.50
2024-05-09T05:42:59.403Z,99865.69
2024-05-09T05:45:26.001Z,99881.59
2024-05-09T05:47:53.488Z,99874.56
2024-05-09T05:50:27.494Z,99874.59
2024-05-09T05:52:59.719Z,99872.66
2024-05-09T05:55:26.349Z,99878.16
2024-05-09T05:57:52.948Z,99868.88
2024-05-09T06:00:29.207Z,99873.56
2024-05-09T06:03:02.136Z,99870.47
2024-05-09T06:05:29.013Z,99867.72
2024-05-09T06:07:55.786Z,99869.84
2024-05-09T06:10:26.319Z,99866.28
2024-05-09T06:13:01.387Z,99863.22
2024-05-09T06:15:28.020Z,99862.31
2024-05-09T06:17:54.791Z,99870.06
2024-05-09T06:20:27.775Z,99862.81
2024-05-09T06:23:01.728Z,99874.69
2024-05-09T06:25:28.390Z,99872.38
2024-05-09T06:27:54.978Z,99873.84
2024-05-09T06:30:29.868Z,99871.72
2024-05-09T06:33:03.799Z,99877.06
2024-05-09T06:35:30.734Z,99876.41
2024-05-09T06:37:57.529Z,99878.81
2024-05-09T06:40:29.276Z,99884.50
2024-05-09T06:43:01.004Z,99874.41
2024-05-09T06:45:27.591Z,99876.59
2024-05-09T06:47:54.352Z,99875.69
2024-05-09T06:50:24.227Z,99875.47
2024-05-09T06:52:54.595Z,99874.94
2024-05-09T06:55:21.222Z,99876.00
2024-05-09T06:57:47.800Z,99877.50
2024-05-09T07:00:22.726Z,99877.00
2024-05-09T07:02:57.323Z,99870.09
2024-05-09T07:05:24.670Z,99879.38
2024-05-09T07:07:51.290Z,99875.91
2024-05-09T07:10:25.729Z,99876.28
2024-05-09T07:12:59.025Z,99882.94
2024-05-09T07:15:25.630Z,99875.22
2024-05-09T07:17:52.328Z,99870.19
2024-05-09T07:20:27.644Z,99870.63
2024-05-09T07:23:00.722Z,99875.47
2024-05-09T07:25:27.344Z,99869.28
2024-05-09T07:27:53.940Z,99867.91
2024-05-09T07:30:27.507Z,99864.94
2024-05-09T07:32:59.906Z,99867.31
2024-05-09T07:35:27.094Z,99863.66
2024-05-09T07:37:53.874Z,99857.34
2024-05-09T07:40:29.003Z,99853.44
2024-05-09T07:43:02.109Z,99847.16
2024-05-09T07:45:45.054Z,99857.47
2024-05-09T07:49:45.336Z,99848.06
2024-05-09T07:53:07.841Z,99860.06
2024-05-09T07:53:51.961Z,99858.84
2024-05-09T07:56:22.719Z,99857.56
2024-05-09T07:58:50.673Z,99851.06
2024-05-09T08:01:17.734Z,99850.00
2024-05-09T08:03:44.617Z,99855.25
2024-05-09T08:06:11.383Z,99857.31
2024-05-09T08:08:37.948Z,99855.00
2024-05-09T08:11:04.587Z,99857.69
2024-05-09T08:13:31.188Z,99856.06
2024-05-09T08:15:57.838Z,99848.44
2024-05-09T08:18:24.745Z,99857.47
2024-05-09T08:20:51.681Z,99853.88
2024-05-09T08:23:18.345Z,99846.25
2024-05-09T08:25:44.963Z,99855.63
2024-05-09T08:28:11.719Z,99853.03
2024-05-09T08:30:38.648Z,99867.00
2024-05-09T08:33:06.490Z,99867.50
2024-05-09T08:35:33.928Z,99865.53
2024-05-09T08:38:00.687Z,99862.69
2024-05-09T08:40:34.210Z,99859.59
2024-05-09T08:43:03.185Z,99868.09
2024-05-09T08:45:30.099Z,99860.56
2024-05-09T08:47:56.918Z,99855.84
2024-05-09T08:50:31.735Z,99860.56
2024-05-09T08:53:04.623Z,99864.78
2024-05-09T08:55:31.203Z,99855.06
2024-05-09T08:57:57.843Z,99858.72
2024-05-09T09:00:33.759Z,99857.97
2024-05-09T09:03:03.721Z,99854.47
2024-05-09T09:05:30.480Z,99867.50
2024-05-09T09:07:57.205Z,99860.34
2024-05-09T09:10:29.839Z,99850.50
2024-05-09T09:12:58.797Z,99862.72
2024-05-09T09:15:25.442Z,99865.88
2024-05-09T09:17:52.177Z,99859.09
2024-05-09T09:20:26.219Z,99862.38
2024-05-09T09:22:59.972Z,99852.25
2024-05-09T09:25:26.624Z,99845.75
2024-05-09T09:27:54.063Z,99853.13
2024-05-09T09:30:31.839Z,99855.38
2024-05-09T09:33:03.599Z,99845.38
2024-05-09T09:35:30.293Z,99852.38
2024-05-09T09:37:56.900Z,99854.56
2024-05-09T09:40:30.999Z,99855.22
2024-05-09T09:42:59.247Z,99853.81
2024-05-09T09:45:25.859Z,99848.53
2024-05-09T09:47:52.627Z,99850.63
2024-05-09T09:50:27.305Z,99846.72
2024-05-09T09:52:58.473Z,99836.50
2024-05-09T09:55:25.220Z,99843.69
2024-05-09T09:57:51.917Z,99845.66
2024-05-09T10:00:24.630Z,99845.66
2024-05-09T10:02:57.112Z,99835.53
2024-05-09T10:05:24.199Z,99836.59
2024-05-09T10:07:50.930Z,99847.88
2024-05-09T10:10:23.135Z,99844.06
2024-05-09T10:12:56.705Z,99845.91
2024-05-09T10:15:23.415Z,99835.44
2024-05-09T10:17:50.040Z,99840.84
2024-05-09T10:20:21.915Z,99844.69
2024-05-09T10:22:52.067Z,99842.56
2024-05-09T10:25:18.711Z,99844.22
2024-05-09T10:27:45.356Z,99817.44
2024-05-09T10:30:17.847Z,99826.03
2024-05-09T10:32:51.926Z,99836.81
2024-05-09T10:35:18.560Z,99830.31
2024-05-09T10:37:45.122Z,99828.63
2024-05-09T10:40:17.365Z,99821.78
2024-05-09T10:42:49.417Z,99828.38
2024-05-09T10:45:16.166Z,99832.41
2024-05-09T10:47:42.833Z,99844.56
2024-05-09T10:50:18.331Z,99833.63
2024-05-09T10:52:51.973Z,99830.50
2024-05-09T10:55:18.598Z,99823.94
2024-05-09T10:57:45.265Z,99813.72
2024-05-09T11:00:19.002Z,99815.38
2024-05-09T11:02:50.048Z,99811.50
2024-05-09T11:05:16.864Z,99809.09
2024-05-09T11:07:43.508Z,99815.31
2024-05-09T11:10:12.623Z,99824.34
2024-05-09T11:12:41.164Z,99823.16
2024-05-09T11:15:07.768Z,99820.53
2024-05-09T11:17:34.403Z,99815.66
2024-05-09T11:20:01.114Z,99807.53
2024-05-09T11:22:27.786Z,99812.06
2024-05-09T11:24:54.544Z,99802.41
2024-05-09T11:27:21.180Z,99800.22
2024-05-09T11:29:47.771Z,99767.75
2024-05-09T11:32:14.435Z,99787.94
2024-05-09T11:34:41.077Z,99788.47
2024-05-09T11:37:07.770Z,99791.41
2024-05-09T11:39:34.965Z,99798.25
2024-05-09T11:42:01.587Z,99788.34
2024-05-09T11:44:28.133Z,99795.13
2024-05-09T11:46:54.771Z,99786.38
2024-05-09T11:49:23.158Z,99780.97
2024-05-09T11:51:51.125Z,99782.19
2024-05-09T11:54:17.737Z,99781.44
2024-05-09T11:56:44.327Z,99789.13
2024-05-09T11:59:10.878Z,99784.16
2024-05-09T12:01:37.722Z,99779.22
2024-05-09T12:04:04.916Z,99786.50
2024-05-09T12:06:31.706Z,99797.38
2024-05-09T12:08:58.326Z,99782.03
2024-05-09T12:11:24.946Z,99780.97
2024-05-09T12:13:51.532Z,99787.00
2024-05-09T12:16:18.212Z,99769.25
2024-05-09T12:18:44.916Z,99776.03
2024-05-09T12:21:11.516Z,99767.00
2024-05-09T12:23:38.189Z,99761.88
2024-05-09T12:26:04.769Z,99776.66
2024-05-09T12:28:31.398Z,99760.06
2024-05-09T12:30:58.187Z,99759.34
2024-05-09T12:33:25.166Z,99760.97
2024-05-09T12:35:51.821Z,99752.13
2024-05-09T12:38:18.417Z,99752.81
2024-05-09T12:40:45.055Z,99767.75
2024-05-09T12:43:12.072Z,99760.25
2024-05-09T12:45:39.175Z,99759.09
2024-05-09T12:48:06.097Z,99752.56
2024-05-09T12:50:34.352Z,99752.38
2024-05-09T12:53:02.064Z,99742.22
2024-05-09T12:55:33.941Z,99742.22
2024-05-09T12:58:07.618Z,99727.53
2024-05-09T13:00:34.744Z,99725.16
2024-05-09T13:03:01.662Z,99705.31
2024-05-09T13:05:28.830Z,99724.25
2024-05-09T13:07:55.834Z,99715.81
2024-05-09T13:10:29.118Z,99720.78
2024-05-09T13:12:59.318Z,99721.34
2024-05-09T13:15:26.087Z,99717.44
2024-05-09T13:17:52.831Z,99711.91
2024-05-09T13:20:28.872Z,99715.81
2024-05-09T13:22:59.446Z,99716.59
2024-05-09T13:25:26.086Z,99703.69
2024-05-09T13:27:52.693Z,99699.50
2024-05-09T13:30:28.692Z,99706.06
2024-05-09T13:33:02.090Z,99696.00
2024-05-09T13:35:28.827Z,99694.66
2024-05-09T13:37:55.462Z,99666.97
2024-05-09T13:40:29.787Z,99684.72
2024-05-09T13:43:00.732Z,99696.81
2024-05-09T13:45:27.339Z,99682.28
2024-05-09T13:47:53.976Z,99675.66
2024-05-09T13:50:28.244Z,99674.59
2024-05-09T13:53:00.430Z,99678.22
2024-05-09T13:55:27.136Z,99677.16
2024-05-09T13:57:53.946Z,99672.00
2024-05-09T14:02:50.122Z,99677.69
2024-05-09T14:05:17.045Z,99668.59
2024-05-09T14:07:43.891Z,99663.88
2024-05-09T14:10:19.770Z,99667.91
2024-05-09T14:12:52.175Z,99662.81
2024-05-09T14:15:18.805Z,99671.59
2024-05-09T14:17:45.382Z,99670.84
2024-05-09T14:20:14.214Z,99672.84
2024-05-09T14:22:45.927Z,99673.28
2024-05-09T14:25:12.818Z,99665.00
2024-05-09T14:27:39.599Z,99675.34
2024-05-09T14:30:11.762Z,99664.66
2024-05-09T14:32:41.658Z,99657.91
2024-05-09T14:35:08.379Z,99665.06
2024-05-09T14:37:36.422Z,99669.06
2024-05-09T14:40:06.968Z,99665.50
2024-05-09T14:42:33.939Z,99658.41
2024-05-09T14:45:00.549Z,99655.25
2024-05-09T14:47:27.295Z,99653.63
2024-05-09T14:49:54.110Z,99658.81
2024-05-09T14:52:20.862Z,99654.03
2024-05-09T14:54:47.917Z,99655.25
2024-05-09T14:57:17.749Z,99657.59
2024-05-09T14:59:44.291Z,99652.44
2024-05-09T15:02:11.096Z,99647.69
2024-05-09T15:04:37.867Z,99645.69
2024-05-09T15:07:04.645Z,99643.69
2024-05-09T15:09:31.289Z,99652.03
2024-05-09T15:11:57.962Z,99650.06
2024-05-09T15:14:24.538Z,99648.88
2024-05-09T15:16:51.154Z,99648.06
2024-05-09T15:19:18.179Z,99640.13
2024-05-09T15:21:44.979Z,99637.34
2024-05-09T15:24:11.568Z,99647.28
2024-05-09T15:26:38.137Z,99647.28
2024-05-09T15:29:04.753Z,99653.63
2024-05-09T15:31:31.436Z,99655.63
2024-05-09T15:33:58.304Z,99643.69
2024-05-09T15:36:24.898Z,99647.69
2024-05-09T15:38:51.502Z,99644.91
2024-05-09T15:41:18.062Z,99642.50
2024-05-09T15:43:44.615Z,99653.63
2024-05-09T15:46:11.334Z,99640.91
2024-05-09T15:48:41.140Z,99636.56
2024-05-09T15:51:08.466Z,99634.94
2024-05-09T15:53:35.056Z,99634.50
2024-05-09T15:56:01.658Z,99641.25
2024-05-09T15:58:28.289Z,99645.69
2024-05-09T16:00:55.179Z,99634.13
2024-05-09T16:03:21.945Z,99631.72
2024-05-09T16:05:48.949Z,99632.13
2024-05-09T16:08:15.935Z,99629.72
2024-05-09T16:10:44.596Z,99636.06
2024-05-09T16:13:12.367Z,99628.13
2024-05-09T16:15:39.194Z,99637.66
2024-05-09T16:18:05.891Z,99633.66
2024-05-09T16:20:39.031Z,99630.09
2024-05-09T16:23:08.766Z,99629.31
2024-05-09T16:25:35.716Z,99632.50
2024-05-09T16:28:02.971Z,99628.50
2024-05-09T16:30:34.946Z,99633.28
2024-05-09T16:33:02.927Z,99630.47
2024-05-09T16:35:29.933Z,99623.31
2024-05-09T16:37:56.553Z,99631.25
2024-05-09T16:40:30.354Z,99633.25
2024-05-09T16:43:04.415Z,99627.25
2024-05-09T16:45:31.349Z,99635.22
2024-05-09T16:47:58.221Z,99634.03
2024-05-09T16:50:29.534Z,99626.03
2024-05-09T16:52:59.564Z,99619.69
2024-05-09T16:55:26.195Z,99624.03
2024-05-09T16:57:52.835Z,99620.84
2024-05-09T17:00:30.891Z,99630.75
2024-05-09T17:03:05.895Z,99622.41
2024-05-09T17:05:32.785Z,99618.41
2024-05-09T17:07:59.452Z,99628.28
2024-05-09T17:10:31.898Z,99623.16
2024-05-09T17:13:00.795Z,99615.59
2024-05-09T17:15:27.513Z,99621.94
2024-05-09T17:17:54.181Z,99616.75
2024-05-09T17:20:29.393Z,99617.94
2024-05-09T17:23:00.378Z,99618.72
2024-05-09T17:25:27.090Z,99618.28
2024-05-09T17:27:53.798Z,99619.06
2024-05-09T17:30:28.766Z,99616.28
2024-05-09T17:33:01.321Z,99618.22
2024-05-09T17:35:28.263Z,99621.75
2024-05-09T17:37:54.820Z,99626.13
2024-05-09T17:40:30.664Z,99621.34
2024-05-09T17:43:00.954Z,99622.50
2024-05-09T17:45:27.649Z,99615.31
2024-05-09T17:47:54.466Z,99612.94
2024-05-09T17:50:27.542Z,99621.25
2024-05-09T17:53:00.704Z,99619.25
2024-05-09T17:55:27.438Z,99623.16
2024-05-09T17:57:54.282Z,99621.13
2024-05-09T18:00:29.238Z,99621.13
2024-05-09T18:03:03.937Z,99619.47
2024-05-09T18:05:31.054Z,99625.81
2024-05-09T18:07:57.845Z,99617.03
2024-05-09T18:10:32.526Z,99618.19
2024-05-09T18:13:03.347Z,99622.13
2024-05-09T18:15:29.989Z,99624.06
2024-05-09T18:17:56.744Z,99627.97
2024-05-09T18:20:32.439Z,99629.94
2024-05-09T18:23:07.136Z,99628.28
2024-05-09T18:25:33.717Z,99633.38
2024-05-09T18:28:00.324Z,99625.03
2024-05-09T18:30:32.483Z,99637.28
2024-05-09T18:33:02.160Z,99634.81
2024-05-09T18:35:28.979Z,99639.56
2024-05-09T18:37:55.578Z,99642.66
2024-05-09T18:40:31.193Z,99651.31
2024-05-09T18:43:01.829Z,99652.81
2024-05-09T18:45:28.462Z,99654.34
2024-05-09T18:47:55.134Z,99660.63
2024-05-09T18:50:31.686Z,99662.16
2024-05-09T18:53:02.435Z,99665.25
2024-05-09T18:55:29.015Z,99664.41
2024-05-09T18:57:55.678Z,99671.84
2024-05-09T19:00:32.973Z,99669.44
2024-05-09T19:03:03.513Z,99670.56
2024-05-09T19:05:30.586Z,99681.56
2024-05-09T19:07:57.375Z,99681.09
2024-05-09T19:10:28.717Z,99683.03
2024-05-09T19:12:58.881Z,99685.31
2024-05-09T19:15:25.474Z,99683.66
2024-05-09T19:17:52.222Z,99692.28
2024-05-09T19:20:25.436Z,99687.06
2024-05-09T19:22:58.477Z,99696.88
2024-05-09T19:25:25.019Z,99695.22
2024-05-09T19:27:51.685Z,99686.84
2024-05-09T19:30:25.681Z,99700.63
2024-05-09T19:33:01.219Z,99699.34
2024-05-09T19:35:27.868Z,99704.81
2024-05-09T19:37:54.440Z,99699.63
2024-05-09T19:40:28.867Z,99699.50
2024-05-09T19:42:58.635Z,99700.97
2024-05-09T19:45:25.372Z,99708.44
2024-05-09T19:47:52.138Z,99703.19
2024-05-09T19:50:26.704Z,99710.19
2024-05-09T19:52:59.557Z,99707.72
2024-05-09T19:55:26.191Z,99714.00
2024-05-09T19:57:52.885Z,99708.78
2024-05-09T20:00:26.051Z,99713.44
2024-05-09T20:02:56.353Z,99709.88
2024-05-09T20:05:23.555Z,99704.97
2024-05-09T20:07:50.249Z,99705.69
2024-05-09T20:10:23.498Z,99711.88
2024-05-09T20:12:53.311Z,99711.00
2024-05-09T20:15:19.915Z,99713.25
2024-05-09T20:17:46.573Z,99707.19
2024-05-09T20:20:23.542Z,99710.25
2024-05-09T20:22:58.378Z,99713.69
2024-05-09T20:25:24.992Z,99710.41
2024-05-09T20:27:51.630Z,99710.72
2024-05-09T20:30:25.449Z,99711.78
2024-05-09T20:32:58.226Z,99715.63
2024-05-09T20:35:24.995Z,99712.34
2024-05-09T20:37:51.638Z,99710.25
2024-05-09T20:40:25.599Z,99716.88
2024-05-09T20:42:58.188Z,99719.91
2024-05-09T20:45:24.849Z,99725.34
2024-05-09T20:47:51.533Z,99717.31
2024-05-09T20:50:27.878Z,99725.84
2024-05-09T20:53:02.368Z,99721.78
2024-05-09T20:55:29.062Z,99723.22
2024-05-09T20:57:55.666Z,99719.13
2024-05-09T21:00:29.834Z,99728.13
2024-05-09T21:03:03.882Z,99700.44
2024-05-09T21:05:30.696Z,99731.78
2024-05-09T21:07:57.376Z,99730.13
2024-05-09T21:10:26.943Z,99728.75
2024-05-09T21:12:54.083Z,99723.53
2024-05-09T21:15:20.697Z,99723.41
2024-05-09T21:17:47.351Z,99721.75
2024-05-09T21:20:17.533Z,99722.44
2024-05-09T21:22:47.410Z,99716.38
2024-05-09T21:25:14.316Z,99696.16
2024-05-09T21:27:41.070Z,99722.84
2024-05-09T21:30:12.941Z,99724.72
2024-05-09T21:32:44.983Z,99720.63
2024-05-09T21:35:11.626Z,99720.09
2024-05-09T21:37:38.213Z,99729.41
2024-05-09T21:40:09.212Z,99721.41
2024-05-09T21:42:38.061Z,99722.00
2024-05-09T21:45:04.709Z,99720.31
2024-05-09T21:47:31.452Z,99720.56
2024-05-09T21:49:58.080Z,99721.97
2024-05-09T21:52:24.739Z,99721.88
2024-05-09T21:54:51.383Z,99717.75
2024-05-09T21:57:17.932Z,99723.47
2024-05-09T21:59:44.519Z,99722.94
2024-05-09T22:02:11.338Z,99729.03
2024-05-09T22:04:38.308Z,99727.31
2024-05-09T22:07:05.046Z,99733.88
2024-05-09T22:09:31.655Z,99726.19
2024-05-09T22:11:58.324Z,99732.75
2024-05-09T22:14:24.927Z,99731.41
2024-05-09T22:16:51.484Z,99729.69
2024-05-09T22:19:18.129Z,99707.00
2024-05-09T22:21:44.806Z,99732.13
2024-05-09T22:24:11.394Z,99733.94
2024-05-09T22:26:37.938Z,99730.63
2024-05-09T22:29:04.523Z,99737.19
2024-05-09T22:31:31.122Z,99733.81
2024-05-09T22:33:57.938Z,99739.53
2024-05-09T22:36:24.688Z,99737.00
2024-05-09T22:38:51.289Z,99732.56
2024-05-09T22:41:17.964Z,99736.34
2024-05-09T22:43:44.541Z,99734.63
2024-05-09T22:46:11.150Z,99724.63
2024-05-09T22:48:38.201Z,99732.78
2024-05-09T22:51:05.048Z,99722.00
2024-05-09T22:53:31.656Z,99726.59
2024-05-09T22:55:58.299Z,99722.94
2024-05-09T22:58:25.053Z,99723.94
2024-05-09T23:00:51.929Z,99725.31
2024-05-09T23:03:18.829Z,99722.78
2024-05-09T23:05:45.549Z,99721.38
2024-05-09T23:08:12.118Z,99719.69
2024-05-09T23:10:38.863Z,99724.22
2024-05-09T23:13:05.873Z,99723.28
2024-05-09T23:15:32.772Z,99731.72
2024-05-09T23:17:59.497Z,99717.75
2024-05-09T23:20:33.548Z,99723.44
2024-05-09T23:23:04.586Z,99725.94
2024-05-09T23:25:31.198Z,99723.41
2024-05-09T23:27:57.842Z,99716.16
2024-05-09T23:30:33.602Z,99717.19
2024-05-09T23:33:04.705Z,99717.41
2024-05-09T23:35:31.335Z,99714.06
2024-05-09T23:37:57.974Z,99717.78
2024-05-09T23:40:34.939Z,99722.38
2024-05-09T23:43:05.616Z,99717.41
2024-05-09T23:45:32.299Z,99720.34
2024-05-09T23:47:58.993Z,99720.53
2024-05-09T23:50:33.593Z,99713.31
2024-05-09T23:53:03.234Z,99704.47
2024-05-09T23:55:29.872Z,99712.88
2024-05-09T23:57:56.482Z,99710.34
